Meniu

AB meteo

EYSA 55 53 38N 023 23 42E

Hello!

Welcome to AB meteo!
Here you can find links to actual weather data and weather forecast.

Posted by moose 2009 January 13 Tuesday 23:40:26

METAR

164118119 4 EYSA 260850Z 01005KT 290V060 CAVOK 15/08 Q1017 BLU NOSIG

TAF

164118148 7 TAF EYSA 260800Z 2609/2618 34006G16KT 9000 BKN030 TEMPO 2609/2616 SCT018CB